createdAt,value
2022-12-03T00:00:12.556Z,81.38
2022-12-03T00:03:00.946Z,81.20
2022-12-03T00:05:29.039Z,81.37
2022-12-03T00:07:56.963Z,81.06
2022-12-03T00:10:24.962Z,80.60
2022-12-03T00:12:53.028Z,81.22
2022-12-03T00:15:20.938Z,80.68
2022-12-03T00:17:48.662Z,80.95
2022-12-03T00:20:23.189Z,80.69
2022-12-03T00:22:50.911Z,80.62
2022-12-03T00:25:18.947Z,81.22
2022-12-03T00:27:46.876Z,81.01
2022-12-03T00:30:15.248Z,80.94
2022-12-03T00:32:43.035Z,80.78
2022-12-03T00:35:10.937Z,81.21
2022-12-03T00:37:38.593Z,80.86
2022-12-03T00:40:07.214Z,80.92
2022-12-03T00:42:35.141Z,81.62
2022-12-03T00:45:04.661Z,81.25
2022-12-03T00:47:32.351Z,81.18
2022-12-03T00:50:00.264Z,81.03
2022-12-03T00:52:27.964Z,80.83
2022-12-03T00:54:56.072Z,80.69
2022-12-03T00:57:23.820Z,80.53
2022-12-03T00:59:51.716Z,80.10
2022-12-03T01:02:19.354Z,80.78
2022-12-03T01:04:47.899Z,80.85
2022-12-03T01:07:15.623Z,80.80
2022-12-03T01:09:43.491Z,81.03
2022-12-03T01:12:12.053Z,80.34
2022-12-03T01:14:40.060Z,80.03
2022-12-03T01:17:07.670Z,80.56
2022-12-03T01:19:35.907Z,80.46
2022-12-03T01:22:03.695Z,81.21
2022-12-03T01:24:32.350Z,81.02
2022-12-03T01:27:00.929Z,81.04
2022-12-03T01:29:28.863Z,80.85
2022-12-03T01:32:15.048Z,81.69
2022-12-03T01:34:54.906Z,80.92
2022-12-03T01:37:25.453Z,81.09
2022-12-03T01:39:53.757Z,80.78
2022-12-03T01:42:39.572Z,80.46
2022-12-03T01:45:19.351Z,80.32
2022-12-03T01:47:46.960Z,80.74
2022-12-03T01:50:31.712Z,80.23
2022-12-03T01:53:02.999Z,80.55
2022-12-03T01:55:31.399Z,80.45
2022-12-03T01:58:01.921Z,80.76
2022-12-03T02:00:30.301Z,80.58
2022-12-03T02:03:03.830Z,80.28
2022-12-03T02:05:33.314Z,81.05
2022-12-03T02:08:01.605Z,80.70
2022-12-03T02:10:37.867Z,80.25
2022-12-03T02:13:10.640Z,80.31
2022-12-03T02:15:40.177Z,80.21
2022-12-03T02:18:09.347Z,80.41
2022-12-03T02:21:07.994Z,80.28
2022-12-03T02:23:47.454Z,80.09
2022-12-03T02:26:15.501Z,80.50
2022-12-03T02:28:43.314Z,80.29
2022-12-03T02:31:11.447Z,79.94
2022-12-03T02:33:39.302Z,80.27
2022-12-03T02:36:07.425Z,79.84
2022-12-03T02:38:36.365Z,79.68
2022-12-03T02:41:08.510Z,79.89
2022-12-03T02:43:36.759Z,80.09
2022-12-03T02:46:07.855Z,79.73
2022-12-03T02:48:39.892Z,79.27
2022-12-03T02:51:10.293Z,80.17
2022-12-03T02:53:48.752Z,80.35
2022-12-03T02:56:21.091Z,79.87
2022-12-03T02:58:52.674Z,80.17
2022-12-03T03:01:20.708Z,79.75
2022-12-03T03:03:50.881Z,80.49
2022-12-03T03:06:20.818Z,79.94
2022-12-03T03:08:49.287Z,80.16
2022-12-03T03:11:17.233Z,80.02
2022-12-03T03:13:44.884Z,80.72
2022-12-03T03:16:13.239Z,80.59
2022-12-03T03:18:41.241Z,80.25
2022-12-03T03:21:09.610Z,79.46
2022-12-03T03:23:37.158Z,79.56
2022-12-03T03:26:11.866Z,79.77
2022-12-03T03:28:43.658Z,79.95
2022-12-03T03:31:15.283Z,79.78
2022-12-03T03:33:47.122Z,79.40
2022-12-03T03:36:16.713Z,79.62
2022-12-03T03:38:44.440Z,79.25
2022-12-03T03:41:13.197Z,78.65
2022-12-03T03:43:42.647Z,78.35
2022-12-03T03:46:12.108Z,78.45
2022-12-03T03:48:41.850Z,78.20
2022-12-03T03:51:11.212Z,78.13
2022-12-03T03:53:41.195Z,78.87
2022-12-03T03:56:09.706Z,78.55
2022-12-03T03:58:38.098Z,78.61
2022-12-03T04:01:06.465Z,78.44
2022-12-03T04:03:35.356Z,78.43
2022-12-03T04:06:03.564Z,78.00
2022-12-03T04:08:31.803Z,78.28
2022-12-03T04:11:18.105Z,78.20
2022-12-03T04:13:45.689Z,78.30
2022-12-03T04:16:13.667Z,78.33
2022-12-03T04:18:44.529Z,78.39
2022-12-03T04:21:39.295Z,78.33
2022-12-03T04:24:08.623Z,77.62
2022-12-03T04:26:55.789Z,77.74
2022-12-03T04:29:23.754Z,77.78
2022-12-03T04:32:10.274Z,78.15
2022-12-03T04:34:56.791Z,78.53
2022-12-03T04:37:25.099Z,78.09
2022-12-03T04:39:52.715Z,77.44
2022-12-03T04:42:20.621Z,77.28
2022-12-03T04:44:48.448Z,77.53
2022-12-03T04:47:21.563Z,77.75
2022-12-03T04:49:51.719Z,77.55
2022-12-03T04:52:20.799Z,77.14
2022-12-03T04:54:48.805Z,77.42
2022-12-03T04:57:16.735Z,77.62
2022-12-03T04:59:44.456Z,77.79
2022-12-03T05:02:12.389Z,77.69
2022-12-03T05:04:40.412Z,77.86
2022-12-03T05:07:08.285Z,77.97
2022-12-03T05:09:36.034Z,77.66
2022-12-03T05:12:04.066Z,77.42
2022-12-03T05:14:31.663Z,77.49
2022-12-03T05:16:59.692Z,77.38
2022-12-03T05:19:47.302Z,77.55
2022-12-03T05:22:15.350Z,76.83
2022-12-03T05:24:43.038Z,77.71
2022-12-03T05:27:11.002Z,76.83
2022-12-03T05:29:38.652Z,77.32
2022-12-03T05:32:06.601Z,77.28
2022-12-03T05:34:34.296Z,77.47
2022-12-03T05:37:02.169Z,77.44
2022-12-03T05:39:29.926Z,77.19
2022-12-03T05:42:27.234Z,77.29
2022-12-03T05:44:55.044Z,76.99
2022-12-03T05:47:23.099Z,77.48
2022-12-03T05:49:50.659Z,77.16
2022-12-03T05:52:18.552Z,77.45
2022-12-03T05:54:46.152Z,77.92
2022-12-03T05:57:14.014Z,78.25
2022-12-03T05:59:41.586Z,78.07
2022-12-03T06:02:09.473Z,77.48
2022-12-03T06:04:37.273Z,77.78
2022-12-03T06:07:07.464Z,77.67
2022-12-03T06:09:38.639Z,77.72
2022-12-03T06:12:07.006Z,77.88
2022-12-03T06:14:35.671Z,77.83
2022-12-03T06:17:04.750Z,77.50
2022-12-03T06:19:32.764Z,77.87
2022-12-03T06:22:00.614Z,77.16
2022-12-03T06:24:28.452Z,77.62
2022-12-03T06:26:56.281Z,77.56
2022-12-03T06:29:23.850Z,78.30
2022-12-03T06:31:51.688Z,78.11
2022-12-03T06:34:19.339Z,78.15
2022-12-03T06:36:47.168Z,78.75
2022-12-03T06:39:14.788Z,78.46
2022-12-03T06:41:42.705Z,78.22
2022-12-03T06:44:10.287Z,78.63
2022-12-03T06:46:38.196Z,78.61
2022-12-03T06:49:06.073Z,78.62
2022-12-03T06:51:33.901Z,79.22
2022-12-03T06:54:01.857Z,79.47
2022-12-03T06:56:35.028Z,79.33
2022-12-03T06:59:04.514Z,79.37
2022-12-03T07:01:32.513Z,79.61
2022-12-03T07:04:00.159Z,80.28
2022-12-03T07:06:28.041Z,80.80
2022-12-03T07:08:55.607Z,81.05
2022-12-03T07:11:41.255Z,81.66
2022-12-03T07:14:11.386Z,81.01
2022-12-03T07:16:40.011Z,80.89
2022-12-03T07:19:07.881Z,81.63
2022-12-03T07:21:35.926Z,81.71
2022-12-03T07:24:03.773Z,81.57
2022-12-03T07:26:31.730Z,82.03
2022-12-03T07:28:59.523Z,81.86
2022-12-03T07:31:27.725Z,81.69
2022-12-03T07:33:55.800Z,81.93
2022-12-03T07:36:24.023Z,82.46
2022-12-03T07:38:52.055Z,81.86
2022-12-03T07:41:20.072Z,81.50
2022-12-03T07:43:47.686Z,81.14
2022-12-03T07:46:15.792Z,81.18
2022-12-03T07:48:43.464Z,80.72
2022-12-03T07:51:15.218Z,81.35
2022-12-03T07:53:43.619Z,81.36
2022-12-03T07:56:11.734Z,81.47
2022-12-03T07:58:39.355Z,81.24
2022-12-03T08:01:07.347Z,81.08
2022-12-03T08:03:35.072Z,80.91
2022-12-03T08:06:03.168Z,81.05
2022-12-03T08:08:30.854Z,80.73
2022-12-03T08:10:58.820Z,80.78
2022-12-03T08:13:27.184Z,81.32
2022-12-03T08:16:01.428Z,81.36
2022-12-03T08:18:29.858Z,81.15
2022-12-03T08:20:58.198Z,80.50
2022-12-03T08:23:26.724Z,80.55
2022-12-03T08:25:54.683Z,81.04
2022-12-03T08:28:28.166Z,81.40
2022-12-03T08:31:19.644Z,81.74
2022-12-03T08:33:53.164Z,81.91
2022-12-03T08:36:31.261Z,81.94
2022-12-03T08:39:14.619Z,82.45
2022-12-03T08:42:01.663Z,82.17
2022-12-03T08:44:34.948Z,82.32
2022-12-03T08:47:20.852Z,82.45
2022-12-03T08:50:02.946Z,82.15
2022-12-03T08:52:35.001Z,82.50
2022-12-03T08:55:36.901Z,82.48
2022-12-03T08:58:19.757Z,82.62
2022-12-03T09:00:48.639Z,82.44
2022-12-03T09:03:19.249Z,82.19
2022-12-03T09:05:46.895Z,81.81
2022-12-03T09:08:15.293Z,81.83
2022-12-03T09:10:43.037Z,81.31
2022-12-03T09:13:10.898Z,81.14
2022-12-03T09:15:38.581Z,80.31
2022-12-03T09:18:06.568Z,79.80
2022-12-03T09:20:34.204Z,79.60
2022-12-03T09:23:02.118Z,79.51
2022-12-03T09:25:29.725Z,80.16
2022-12-03T09:27:57.635Z,80.38
2022-12-03T09:30:25.489Z,79.95
2022-12-03T09:32:53.336Z,79.89
2022-12-03T09:35:21.032Z,79.88
2022-12-03T09:37:48.863Z,79.86
2022-12-03T09:40:16.618Z,78.93
2022-12-03T09:42:45.061Z,78.32
2022-12-03T09:45:14.443Z,78.04
2022-12-03T09:47:46.194Z,77.97
2022-12-03T09:50:20.148Z,78.19
2022-12-03T09:52:51.124Z,78.35
2022-12-03T09:55:24.808Z,78.11
2022-12-03T09:57:54.400Z,78.41
2022-12-03T10:00:30.217Z,78.27
2022-12-03T10:03:02.353Z,77.95
2022-12-03T10:05:30.425Z,78.43
2022-12-03T10:08:08.464Z,78.92
2022-12-03T10:10:37.135Z,78.76
2022-12-03T10:13:06.011Z,78.78
2022-12-03T10:15:33.981Z,78.45
2022-12-03T10:18:15.881Z,78.25
2022-12-03T10:20:43.643Z,77.61
2022-12-03T10:23:26.009Z,77.13
2022-12-03T10:25:56.971Z,76.34
2022-12-03T10:28:37.351Z,76.89
2022-12-03T10:31:08.524Z,76.39
2022-12-03T10:33:45.603Z,76.23
2022-12-03T10:36:20.649Z,74.46
2022-12-03T10:39:06.878Z,73.51
2022-12-03T10:41:35.073Z,73.51
2022-12-03T10:44:18.852Z,73.15
2022-12-03T10:47:04.376Z,73.20
2022-12-03T10:49:32.525Z,72.66
2022-12-03T10:52:00.359Z,72.96
2022-12-03T10:54:30.738Z,73.34
2022-12-03T10:56:58.465Z,73.59
2022-12-03T10:59:30.808Z,73.65
2022-12-03T11:01:58.983Z,73.55
2022-12-03T11:04:34.792Z,74.12
2022-12-03T11:07:06.598Z,73.71
2022-12-03T11:09:34.482Z,74.29
2022-12-03T11:12:17.647Z,74.27
2022-12-03T11:14:53.096Z,75.01
2022-12-03T11:17:39.497Z,74.70
2022-12-03T11:20:30.569Z,74.84
2022-12-03T11:22:59.239Z,75.34
2022-12-03T11:25:27.349Z,75.50
2022-12-03T11:28:15.680Z,75.75
2022-12-03T11:30:50.059Z,75.97
2022-12-03T11:33:24.933Z,75.71
2022-12-03T11:36:05.160Z,76.04
2022-12-03T11:38:40.914Z,76.18
2022-12-03T11:41:10.538Z,76.02
2022-12-03T11:43:53.325Z,76.09
2022-12-03T11:46:24.746Z,76.76
2022-12-03T11:48:54.701Z,76.68
2022-12-03T11:51:24.359Z,77.21
2022-12-03T11:53:55.382Z,77.32
2022-12-03T11:56:30.932Z,77.31
2022-12-03T11:59:04.281Z,77.04
2022-12-03T12:01:39.095Z,77.47
2022-12-03T12:04:25.947Z,77.21
2022-12-03T12:06:53.929Z,77.79
2022-12-03T12:09:54.198Z,77.68
2022-12-03T12:12:30.277Z,77.00
2022-12-03T12:14:59.025Z,77.21
2022-12-03T12:17:37.489Z,77.49
2022-12-03T12:20:26.716Z,77.60
2022-12-03T12:22:55.958Z,77.24
2022-12-03T12:25:40.962Z,77.68
2022-12-03T12:28:09.268Z,77.45
2022-12-03T12:30:38.914Z,77.37
2022-12-03T12:33:26.164Z,77.00
2022-12-03T12:35:54.756Z,76.91
2022-12-03T12:38:24.481Z,76.88
2022-12-03T12:40:52.805Z,76.37
2022-12-03T12:43:26.868Z,76.87
2022-12-03T12:45:55.745Z,76.98
2022-12-03T12:48:34.050Z,76.89
2022-12-03T12:51:11.615Z,77.12
2022-12-03T12:53:42.915Z,77.41
2022-12-03T12:56:31.559Z,78.05
2022-12-03T12:59:10.146Z,77.60
2022-12-03T13:01:38.004Z,77.44
2022-12-03T13:04:13.331Z,77.36
2022-12-03T13:06:41.953Z,77.28
2022-12-03T13:09:27.719Z,77.31
2022-12-03T13:11:59.281Z,77.38
2022-12-03T13:14:31.979Z,77.95
2022-12-03T13:17:01.693Z,78.40
2022-12-03T13:19:39.571Z,78.51
2022-12-03T13:22:21.404Z,77.91
2022-12-03T13:24:54.919Z,78.39
2022-12-03T13:27:31.846Z,77.82
2022-12-03T13:30:07.282Z,77.99
2022-12-03T13:32:37.711Z,78.10
2022-12-03T13:35:30.570Z,78.22
2022-12-03T13:38:01.581Z,78.27
2022-12-03T13:40:36.243Z,78.86
2022-12-03T13:43:16.653Z,79.22
2022-12-03T13:45:47.272Z,79.32
2022-12-03T13:48:35.118Z,79.84
2022-12-03T13:51:19.675Z,80.22
2022-12-03T13:53:47.358Z,80.42
2022-12-03T13:56:21.418Z,80.01
2022-12-03T13:58:49.133Z,80.33
2022-12-03T14:01:17.366Z,79.94
2022-12-03T14:03:45.304Z,79.93
2022-12-03T14:06:13.247Z,80.49
2022-12-03T14:08:41.087Z,80.50
2022-12-03T14:11:09.144Z,80.61
2022-12-03T14:13:36.870Z,81.27
2022-12-03T14:16:05.147Z,81.23
2022-12-03T14:18:32.783Z,81.54
2022-12-03T14:21:00.634Z,81.34
2022-12-03T14:23:28.242Z,81.75
2022-12-03T14:25:56.378Z,81.81
2022-12-03T14:28:24.155Z,82.06
2022-12-03T14:30:53.736Z,82.75
2022-12-03T14:33:21.363Z,82.93
2022-12-03T14:35:49.362Z,83.31
2022-12-03T14:38:16.998Z,83.46
2022-12-03T14:40:45.191Z,83.74
2022-12-03T14:43:12.897Z,83.25
2022-12-03T14:45:41.048Z,83.53
2022-12-03T14:48:08.782Z,83.34
2022-12-03T14:50:36.784Z,83.36
2022-12-03T14:53:04.465Z,83.10
2022-12-03T14:55:32.476Z,83.35
2022-12-03T14:58:00.090Z,84.03
2022-12-03T15:00:28.087Z,84.37
2022-12-03T15:02:55.880Z,84.12
2022-12-03T15:05:28.566Z,84.52
2022-12-03T15:07:57.181Z,84.50
2022-12-03T15:10:25.149Z,84.62
2022-12-03T15:12:52.807Z,84.69
2022-12-03T15:15:21.263Z,84.47
2022-12-03T15:17:49.348Z,84.87
2022-12-03T15:20:19.620Z,84.69
2022-12-03T15:22:47.214Z,84.84
2022-12-03T15:25:15.251Z,85.04
2022-12-03T15:27:42.856Z,85.55
2022-12-03T15:30:10.780Z,85.09
2022-12-03T15:32:40.521Z,85.29
2022-12-03T15:35:08.822Z,85.57
2022-12-03T15:37:36.462Z,85.51
2022-12-03T15:40:04.830Z,85.60
2022-12-03T15:42:32.493Z,85.84
2022-12-03T15:45:00.656Z,85.99
2022-12-03T15:47:28.398Z,86.13
2022-12-03T15:49:56.531Z,85.85
2022-12-03T15:52:24.398Z,85.23
2022-12-03T15:54:52.580Z,85.22
2022-12-03T15:57:20.229Z,85.32
2022-12-03T15:59:48.203Z,86.04
2022-12-03T16:02:15.846Z,86.05
2022-12-03T16:04:44.555Z,86.05
2022-12-03T16:07:12.271Z,86.30
2022-12-03T16:09:40.131Z,86.45
2022-12-03T16:12:07.748Z,86.63
2022-12-03T16:14:35.696Z,86.68
2022-12-03T16:17:03.340Z,86.86
2022-12-03T16:19:31.322Z,87.06
2022-12-03T16:22:00.830Z,87.75
2022-12-03T16:24:28.728Z,87.98
2022-12-03T16:26:56.277Z,87.82
2022-12-03T16:29:24.239Z,87.76
2022-12-03T16:31:51.846Z,88.04
2022-12-03T16:34:19.751Z,88.45
2022-12-03T16:36:48.093Z,88.56
2022-12-03T16:39:16.555Z,88.68
2022-12-03T16:41:44.990Z,89.01
2022-12-03T16:44:20.430Z,88.86
2022-12-03T16:46:48.029Z,89.41
2022-12-03T16:49:15.908Z,89.42
2022-12-03T16:51:43.504Z,89.78
2022-12-03T16:54:11.760Z,90.06
2022-12-03T16:56:39.384Z,89.92
2022-12-03T16:59:07.260Z,89.51
2022-12-03T17:01:34.936Z,89.73
2022-12-03T17:04:02.958Z,90.05
2022-12-03T17:06:30.581Z,90.00
2022-12-03T17:08:58.461Z,90.46
2022-12-03T17:11:26.177Z,90.26
2022-12-03T17:13:54.499Z,90.39
2022-12-03T17:16:22.227Z,90.64
2022-12-03T17:18:50.129Z,90.32
2022-12-03T17:21:17.672Z,90.26
2022-12-03T17:23:48.772Z,90.62
2022-12-03T17:26:17.042Z,90.02
2022-12-03T17:28:45.621Z,90.33
2022-12-03T17:31:13.957Z,90.54
2022-12-03T17:33:41.905Z,90.88
2022-12-03T17:36:10.267Z,91.51
2022-12-03T17:38:39.506Z,91.59
2022-12-03T17:41:07.657Z,91.05
2022-12-03T17:43:35.508Z,90.85
2022-12-03T17:46:05.114Z,91.00
2022-12-03T17:48:35.847Z,91.07
2022-12-03T17:51:03.496Z,91.21
2022-12-03T17:53:31.391Z,90.85
2022-12-03T17:55:59.022Z,91.22
2022-12-03T17:58:27.713Z,90.84
2022-12-03T18:01:00.434Z,90.96
2022-12-03T18:03:31.013Z,91.45
2022-12-03T18:05:58.684Z,91.61
2022-12-03T18:08:26.654Z,91.06
2022-12-03T18:10:54.492Z,91.23
2022-12-03T18:13:22.385Z,90.75
2022-12-03T18:15:50.027Z,90.87
2022-12-03T18:18:17.939Z,90.15
2022-12-03T18:20:45.584Z,90.45
2022-12-03T18:23:13.648Z,89.82
2022-12-03T18:25:42.186Z,89.42
2022-12-03T18:28:10.123Z,89.91
2022-12-03T18:30:37.771Z,89.34
2022-12-03T18:33:05.672Z,88.98
2022-12-03T18:35:33.403Z,89.61
2022-12-03T18:38:01.640Z,89.23
2022-12-03T18:40:29.400Z,89.44
2022-12-03T18:42:57.367Z,89.41
2022-12-03T18:45:25.131Z,89.01
2022-12-03T18:47:53.095Z,89.10
2022-12-03T18:50:20.767Z,89.06
2022-12-03T18:52:48.585Z,88.60
2022-12-03T18:55:19.939Z,88.70
2022-12-03T18:57:48.027Z,88.30
2022-12-03T19:00:16.104Z,88.54
2022-12-03T19:05:34.191Z,89.03
2022-12-03T19:08:03.499Z,88.73
2022-12-03T19:10:31.335Z,88.92
2022-12-03T19:12:59.289Z,88.95
2022-12-03T19:15:26.994Z,88.51
2022-12-03T19:17:54.818Z,88.77
2022-12-03T19:20:22.396Z,88.39
2022-12-03T19:22:50.382Z,88.07
2022-12-03T19:25:18.145Z,88.54
2022-12-03T19:27:46.224Z,88.04
2022-12-03T19:30:14.041Z,88.03
2022-12-03T19:32:41.879Z,88.42
2022-12-03T19:35:11.343Z,89.14
2022-12-03T19:37:39.455Z,88.81
2022-12-03T19:40:10.228Z,88.95
2022-12-03T19:42:38.665Z,89.12
2022-12-03T19:45:07.010Z,88.65
2022-12-03T19:47:36.161Z,89.04
2022-12-03T19:50:05.157Z,89.04
2022-12-03T19:52:36.479Z,88.74
2022-12-03T19:55:05.116Z,89.10
2022-12-03T19:57:33.190Z,88.80
2022-12-03T20:00:01.192Z,89.25
2022-12-03T20:02:29.361Z,88.99
2022-12-03T20:04:57.250Z,89.10
2022-12-03T20:07:25.134Z,89.10
2022-12-03T20:09:53.097Z,88.55
2022-12-03T20:12:21.463Z,88.76
2022-12-03T20:14:50.092Z,89.01
2022-12-03T20:17:18.032Z,88.74
2022-12-03T20:19:45.690Z,88.62
2022-12-03T20:22:13.638Z,88.90
2022-12-03T20:24:41.267Z,89.17
2022-12-03T20:27:09.258Z,89.38
2022-12-03T20:29:36.924Z,89.40
2022-12-03T20:32:06.960Z,89.50
2022-12-03T20:34:35.989Z,89.06
2022-12-03T20:37:04.010Z,89.58
2022-12-03T20:39:31.831Z,89.30
2022-12-03T20:41:59.792Z,89.02
2022-12-03T20:44:27.470Z,89.63
2022-12-03T20:46:55.804Z,89.32
2022-12-03T20:49:23.488Z,89.67
2022-12-03T20:51:51.449Z,89.52
2022-12-03T20:54:19.164Z,89.83
2022-12-03T20:56:47.155Z,90.04
2022-12-03T20:59:16.773Z,89.66
2022-12-03T21:01:45.467Z,90.23
2022-12-03T21:04:13.648Z,90.21
2022-12-03T21:06:42.407Z,90.86
2022-12-03T21:09:11.559Z,90.60
2022-12-03T21:11:42.283Z,91.03
2022-12-03T21:14:11.316Z,91.32
2022-12-03T21:17:06.626Z,91.13
2022-12-03T21:19:27.774Z,91.33
2022-12-03T21:21:55.848Z,91.84
2022-12-03T21:24:23.711Z,91.66
2022-12-03T21:26:51.582Z,91.98
2022-12-03T21:29:19.260Z,91.82
2022-12-03T21:31:47.248Z,92.32
2022-12-03T21:34:15.126Z,92.36
2022-12-03T21:36:43.155Z,92.17
2022-12-03T21:39:11.012Z,92.43
2022-12-03T21:41:39.518Z,92.33
2022-12-03T21:44:07.170Z,92.76
2022-12-03T21:47:10.311Z,92.39
2022-12-03T21:49:23.370Z,92.53
2022-12-03T21:51:51.365Z,92.55
2022-12-03T21:54:19.158Z,93.00
2022-12-03T21:56:47.103Z,93.08
2022-12-03T21:59:15.206Z,93.31
2022-12-03T22:01:47.127Z,93.54
2022-12-03T22:04:15.138Z,93.56
2022-12-03T22:06:43.192Z,93.36
2022-12-03T22:09:10.819Z,93.69
2022-12-03T22:11:38.859Z,94.05
2022-12-03T22:14:08.208Z,93.86
2022-12-03T22:16:36.256Z,94.14
2022-12-03T22:19:04.090Z,94.07
2022-12-03T22:21:31.951Z,93.80
2022-12-03T22:23:59.814Z,94.05
2022-12-03T22:26:27.713Z,93.47
2022-12-03T22:28:55.325Z,93.97
2022-12-03T22:31:23.318Z,93.21
2022-12-03T22:33:51.009Z,93.55
2022-12-03T22:36:21.455Z,93.31
2022-12-03T22:38:50.519Z,93.63
2022-12-03T22:41:20.010Z,94.04
2022-12-03T22:43:48.583Z,94.15
2022-12-03T22:46:17.376Z,94.07
2022-12-03T22:48:46.616Z,94.09
2022-12-03T22:51:20.910Z,94.12
2022-12-03T22:53:53.643Z,94.41
2022-12-03T22:56:22.553Z,94.11
2022-12-03T22:58:50.581Z,94.16
2022-12-03T23:01:29.676Z,94.17
2022-12-03T23:03:58.164Z,93.97
2022-12-03T23:06:26.985Z,93.80
2022-12-03T23:08:55.278Z,94.16
2022-12-03T23:11:23.493Z,94.14
2022-12-03T23:13:51.251Z,94.52
2022-12-03T23:16:26.141Z,94.68
2022-12-03T23:18:54.246Z,94.66
2022-12-03T23:21:29.525Z,94.47
2022-12-03T23:23:59.840Z,94.54
2022-12-03T23:26:28.844Z,94.52
2022-12-03T23:28:56.982Z,95.13
2022-12-03T23:31:31.335Z,94.94
2022-12-03T23:34:00.120Z,94.61
2022-12-03T23:36:30.499Z,94.55
2022-12-03T23:38:58.224Z,94.48
2022-12-03T23:41:26.370Z,94.74
2022-12-03T23:43:54.072Z,95.25
2022-12-03T23:46:27.948Z,94.98
2022-12-03T23:48:58.486Z,95.04
2022-12-03T23:51:26.873Z,94.67
2022-12-03T23:53:55.575Z,95.00
2022-12-03T23:56:29.940Z,94.97
2022-12-03T23:58:58.746Z,94.72
